Home > Products > Valid Products > TAF

000
FTUS44 KBMX 291308 AAA
TAFTOI
TAF AMD
KTOI 291308Z 2913/3012 00000KT P6SM SKC
     FM291600 19005KT P6SM SCT060=



000
FTUS44 KBMX 291306 AAA
TAFMGM
TAF AMD
KMGM 291306Z 2913/3012 00000KT P6SM SKC
     FM291500 10004KT P6SM SCT250
     FM292000 17007KT P6SM SCT050
     FM300400 00000KT P6SM SCT250=



000
FTUS44 KBMX 291138
TAFTCL
TAF
KTCL 291138Z 2912/3012 00000KT P6SM SKC
     FM291700 15007KT P6SM SCT250
     FM292000 20007KT P6SM VCTS BKN050CB
     FM300000 00000KT P6SM OVC250=



000
FTUS44 KBMX 291138
TAFTOI
TAF
KTOI 291138Z 2912/3012 00000KT 1SM BR BKN003
      TEMPO 2912/2914 1/2SM FG VV002
     FM291400 00000KT 6SM BR BKN015
     FM291600 VRB03KT P6SM SCT060=



000
FTUS44 KBMX 291138
TAFMGM
TAF
KMGM 291138Z 2912/3012 00000KT 1SM BR BKN003
      TEMPO 2912/2913 1/4SM FG VV002
     FM291400 10004KT 4SM BR SCT010
     FM291500 10004KT P6SM SCT250
     FM292000 17007KT P6SM SCT250
     FM300400 00000KT P6SM SCT250=



000
FTUS44 KBMX 291138
TAFEET
TAF
KEET 291138Z 2912/3012 00000KT 6SM BR SKC
     FM291400 00000KT P6SM FEW250
     FM291800 15007KT P6SM FEW250
     FM292300 27008KT P6SM VCTS BKN050CB
     FM300300 16004KT 6SM BR BKN025=



000
FTUS44 KBMX 291138
TAFANB
TAF
KANB 291138Z 2912/3012 00000KT 6SM BR SKC
     FM291400 08004KT P6SM SKC=



000
FTUS44 KBMX 291138
TAFBHM
TAF
KBHM 291138Z 2912/3012 00000KT P6SM SKC
     FM291800 14007KT P6SM FEW250
     FM292100 31007KT P6SM BKN250
     FM292300 27008KT P6SM VCTS BKN050CB
     FM300300 16004KT 6SM BR BKN025=



000
FTUS44 KBMX 291138
TAFTOI
TAF
KTOI 291138Z 2912/3012 00000KT 1SM BR BKN003
      TEMPO 2912/2914 1/2SM FG VV002
     FM291400 00000KT 6SM BR BKN015
     FM291600 VRB03KT P6SM SCT060=



000
FTUS44 KBMX 291138
TAFEET
TAF
KEET 291138Z 2912/3012 00000KT 6SM BR SKC
     FM291400 00000KT P6SM FEW250
     FM291800 15007KT P6SM FEW250
     FM292300 27008KT P6SM VCTS BKN050CB
     FM300300 16004KT 6SM BR BKN025=



000
FTUS44 KBMX 291138
TAFANB
TAF
KANB 291138Z 2912/3012 00000KT 6SM BR SKC
     FM291400 08004KT P6SM SKC=



000
FTUS44 KBMX 291138
TAFMGM
TAF
KMGM 291138Z 2912/3012 00000KT 1SM BR BKN003
      TEMPO 2912/2913 1/4SM FG VV002
     FM291400 10004KT 4SM BR SCT010
     FM291500 10004KT P6SM SCT250
     FM292000 17007KT P6SM SCT250
     FM300400 00000KT P6SM SCT250=



000
FTUS44 KBMX 291138
TAFBHM
TAF
KBHM 291138Z 2912/3012 00000KT P6SM SKC
     FM291800 14007KT P6SM FEW250
     FM292100 31007KT P6SM BKN250
     FM292300 27008KT P6SM VCTS BKN050CB
     FM300300 16004KT 6SM BR BKN025=



000
FTUS44 KBMX 291138
TAFTCL
TAF
KTCL 291138Z 2912/3012 00000KT P6SM SKC
     FM291700 15007KT P6SM SCT250
     FM292000 20007KT P6SM VCTS BKN050CB
     FM300000 00000KT P6SM OVC250=



000
FTUS44 KBMX 290930 AAA
TAFEET
TAF AMD
KEET 290930Z 2910/3006 00000KT 6SM BR SKC
     FM291400 00000KT P6SM FEW250
     FM291800 15007KT P6SM FEW250
     FM292300 00000KT P6SM BKN250=



000
FTUS44 KBMX 290930 AAB
TAFMGM
TAF AMD
KMGM 290930Z 2909/3006 00000KT 1SM BR BKN003
      TEMPO 2910/2912 1/2SM FG
     FM291300 10004KT 4SM BR SCT010
     FM291400 10004KT P6SM SCT250
     FM292000 17007KT P6SM SCT250
     FM300400 00000KT P6SM SCT250=



000
FTUS44 KBMX 290930 AAA
TAFANB
TAF AMD
KANB 290930Z 2910/3006 00000KT 6SM BR SKC
     FM291400 08004KT P6SM SKC=



000
FTUS44 KBMX 290928 AAA
TAFTOI
TAF AMD
KTOI 290928Z 2909/3006 00000KT 1SM BR BKN003
      TEMPO 2910/2912 1/2SM FG VV002
     FM291400 00000KT 6SM BR BKN015
     FM291600 VRB03KT P6SM SCT060=



000
FTUS44 KBMX 290834 AAA
TAFMGM
TAF AMD
KMGM 290834Z 2909/3006 00000KT 1SM BR SKC
      TEMPO 2910/2912 1SM BR BKN003
     FM291400 10004KT P6SM SCT250
     FM292000 17007KT P6SM SCT250
     FM300400 00000KT P6SM SCT250=



000
FTUS44 KBMX 290520
TAFANB
TAF
KANB 290520Z 2906/3006 00000KT P6SM SKC
     FM290900 00000KT 3SM BR SKC
     FM291400 08004KT P6SM SKC=



000
FTUS44 KBMX 290520
TAFBHM
TAF
KBHM 290520Z 2906/3006 00000KT P6SM SKC
     FM291800 14007KT P6SM FEW250
     FM292100 31007KT P6SM BKN250
     FM292300 02005KT P6SM BKN250=



000
FTUS44 KBMX 290520
TAFTCL
TAF
KTCL 290520Z 2906/3006 00000KT P6SM SKC
     FM291700 15007KT P6SM SCT250
     FM292000 20007KT P6SM BKN250
     FM300000 00000KT P6SM OVC250=



000
FTUS44 KBMX 290520
TAFMGM
TAF
KMGM 290520Z 2906/3006 00000KT P6SM FEW250
     FM291000 00000KT 5SM BR SCT150
     FM291400 10004KT P6SM SCT250
     FM292000 17007KT P6SM SCT250
     FM300400 00000KT P6SM SCT250=



000
FTUS44 KBMX 290520
TAFEET
TAF
KEET 290520Z 2906/3006 00000KT P6SM SKC
     FM290900 00000KT 3SM BR SKC
     FM291400 00000KT P6SM FEW250
     FM291800 15007KT P6SM FEW250
     FM292300 00000KT P6SM BKN250=



000
FTUS44 KBMX 290520
TAFTOI
TAF
KTOI 290520Z 2906/3006 00000KT 3SM BR BKN003
      TEMPO 2906/2909 2SM BR
     FM290900 00000KT 2SM BR OVC003
      TEMPO 2909/2913 1SM BR
     FM291400 00000KT P6SM BKN015
     FM291600 VRB03KT P6SM SCT060=



000
FTUS44 KBMX 290335 AAA
TAFTOI
TAF AMD
KTOI 290335Z 2904/2924 00000KT 5SM BR BKN150
     FM290900 00000KT 5SM BR BKN010
     FM291500 16004KT P6SM SCT150=



000
FTUS44 KBMX 290054 AAA
TAFMGM
TAF AMD
KMGM 290054Z 2901/2924 19005KT P6SM VCTS BKN050CB BKN150
     FM290230 00000KT P6SM SCT060 BKN150
     FM290900 00000KT P6SM SCT250
     FM291100 VRB03KT P6SM BKN010
     FM291500 14004KT P6SM SCT250=



000
FTUS44 KBMX 290054 AAA
TAFMGM
TAF AMD
KMGM 290054Z 2901/2924 19005KT P6SM VCTS BKN050CB BKN150
     FM290230 00000KT P6SM SCT060 BKN150
     FM290900 00000KT P6SM SCT250
     FM291100 VRB03KT P6SM BKN010
     FM291500 14004KT P6SM SCT250=



000
FTUS44 KBMX 282340
TAFBHM
TAF
KBHM 282340Z 2900/2924 25007KT P6SM FEW060
     FM290200 00000KT P6SM SKC=



000
FTUS44 KBMX 282340
TAFEET
TAF
KEET 282340Z 2900/2924 00000KT P6SM FEW250=



000
FTUS44 KBMX 282340
TAFANB
TAF
KANB 282340Z 2900/2924 24005KT P6SM SCT060
     FM290200 04004KT P6SM SKC
     FM291100 11004KT P6SM SKC=



000
FTUS44 KBMX 282340
TAFMGM
TAF
KMGM 282340Z 2900/2924 19005KT P6SM FEW050 BKN150
     FM290900 00000KT P6SM SCT250
     FM291100 VRB03KT P6SM BKN010
     FM291500 14004KT P6SM SCT250=



000
FTUS44 KBMX 282340
TAFTCL
TAF
KTCL 282340Z 2900/2924 19005KT P6SM SKC
     FM290500 00000KT P6SM SKC=



000
FTUS44 KBMX 282340
TAFMGM
TAF
KMGM 282340Z 2900/2924 19005KT P6SM FEW050 BKN150
     FM290900 00000KT P6SM SCT250
     FM291100 VRB03KT P6SM BKN010
     FM291500 14004KT P6SM SCT250=



000
FTUS44 KBMX 282340
TAFTOI
TAF
KTOI 282340Z 2900/2924 21006KT P6SM BKN100
     FM290900 VRB03KT 5SM BR BKN010
     FM291500 16004KT P6SM SCT150=



000
FTUS44 KBMX 282340
TAFTCL
TAF
KTCL 282340Z 2900/2924 19005KT P6SM SKC
     FM290500 00000KT P6SM SKC=



000
FTUS44 KBMX 282340
TAFANB
TAF
KANB 282340Z 2900/2924 24005KT P6SM SCT060
     FM290200 04004KT P6SM SKC
     FM291100 11004KT P6SM SKC=



000
FTUS44 KBMX 282340
TAFBHM
TAF
KBHM 282340Z 2900/2924 25007KT P6SM FEW060
     FM290200 00000KT P6SM SKC=



000
FTUS44 KBMX 282340
TAFTOI
TAF
KTOI 282340Z 2900/2924 21006KT P6SM BKN100
     FM290900 VRB03KT 5SM BR BKN010
     FM291500 16004KT P6SM SCT150=



000
FTUS44 KBMX 282340
TAFEET
TAF
KEET 282340Z 2900/2924 00000KT P6SM FEW250=



000
FTUS44 KBMX 281825 AAA
TAFTOI
TAF AMD
KTOI 281825Z 2818/2918 24006KT P6SM VCTS BKN040CB
      TEMPO 2818/2820 BKN020CB
     FM290200 VRB03KT P6SM SCT050
     FM290900 00000KT 3SM BR BKN010
     FM291500 VRB03KT P6SM SCT250=



000
FTUS44 KBMX 281736
TAFBHM
TAF
KBHM 281736Z 2818/2918 22007KT P6SM SCT035
     FM290100 00000KT P6SM FEW250=



000
FTUS44 KBMX 281736
TAFTOI
TAF
KTOI 281736Z 2818/2918 24006KT P6SM VCTS BKN040CB
     FM290200 VRB03KT P6SM SCT050
     FM290900 00000KT 3SM BR BKN010
     FM291500 VRB03KT P6SM SCT250=



000
FTUS44 KBMX 281736
TAFMGM
TAF
KMGM 281736Z 2818/2918 22007KT P6SM VCTS BKN040CB
     FM290100 VRB03KT P6SM SCT250
     FM291100 00000KT 4SM BR BKN010
     FM291500 09004KT P6SM FEW250=



000
FTUS44 KBMX 281736
TAFMGM
TAF
KMGM 281736Z 2818/2918 22007KT P6SM VCTS BKN040CB
     FM290100 VRB03KT P6SM SCT250
     FM291100 00000KT 4SM BR BKN010
     FM291500 09004KT P6SM FEW250=



000
FTUS44 KBMX 281736
TAFANB
TAF
KANB 281736Z 2818/2918 22007KT P6SM SCT035
     FM282100 26008KT P6SM FEW035
     FM290100 00000KT P6SM FEW250=



000
FTUS44 KBMX 281736
TAFBHM
TAF
KBHM 281736Z 2818/2918 22007KT P6SM SCT035
     FM290100 00000KT P6SM FEW250=



000
FTUS44 KBMX 281736
TAFTCL
TAF
KTCL 281736Z 2818/2918 20005KT P6SM SCT035
     FM290000 VRB03KT P6SM FEW250=



000
FTUS44 KBMX 281736
TAFEET
TAF
KEET 281736Z 2818/2918 20004KT P6SM SCT035
     FM290000 00000KT P6SM FEW250=



000
FTUS44 KBMX 281736
TAFTCL
TAF
KTCL 281736Z 2818/2918 20005KT P6SM SCT035
     FM290000 VRB03KT P6SM FEW250=



000
FTUS44 KBMX 281736
TAFANB
TAF
KANB 281736Z 2818/2918 22007KT P6SM SCT035
     FM282100 26008KT P6SM FEW035
     FM290100 00000KT P6SM FEW250=



000
FTUS44 KBMX 281736
TAFTOI
TAF
KTOI 281736Z 2818/2918 24006KT P6SM VCTS BKN040CB
     FM290200 VRB03KT P6SM SCT050
     FM290900 00000KT 3SM BR BKN010
     FM291500 VRB03KT P6SM SCT250=



000
FTUS44 KBMX 281736
TAFEET
TAF
KEET 281736Z 2818/2918 20004KT P6SM SCT035
     FM290000 00000KT P6SM FEW250=



000
FTUS44 KBMX 281656 AAC
TAFTOI
TAF AMD
KTOI 281656Z 2817/2912 22009KT P6SM VCTS BKN050CB
     FM290100 23003KT P6SM BKN040
     FM290600 VRB03KT 4SM BR OVC010=



000
FTUS44 KBMX 281656 AAC
TAFTOI
TAF AMD
KTOI 281656Z 2817/2912 22009KT P6SM VCTS BKN050CB
     FM290100 23003KT P6SM BKN040
     FM290600 VRB03KT 4SM BR OVC010=



000
FTUS44 KBMX 281608 AAB
TAFTCL
TAF AMD
KTCL 281608Z 2816/2912 19008KT P6SM OVC015
     FM281730 19008KT P6SM BKN035
     FM281900 27006KT P6SM SCT050=



000
FTUS44 KBMX 281535 AAB
TAFANB
TAF AMD
KANB 281535Z 2816/2912 24005KT P6SM SCT025 BKN035
     FM281800 26005KT P6SM BKN035
     FM282200 26005KT P6SM SCT050=



000
FTUS44 KBMX 281352 AAB
TAFTOI
TAF AMD
KTOI 281352Z 2814/2912 22005KT 6SM -SHRA VCTS SCT025 BKN035CB
      TEMPO 2814/2818 2SM TSRA BKN025CB
     FM281800 22009KT P6SM VCTS BKN050CB
     FM290100 23003KT P6SM BKN040
     FM290600 VRB03KT 4SM BR OVC010=



000
FTUS44 KBMX 281331 AAA
TAFANB
TAF AMD
KANB 281331Z 2814/2912 00000KT P6SM OVC009
     FM281530 24005KT P6SM BKN015
     FM281800 26005KT P6SM BKN035
     FM282200 26005KT P6SM SCT050=



000
FTUS44 KBMX 281327 AAA
TAFBHM
TAF AMD
KBHM 281327Z 2813/2912 17005KT P6SM BKN020
     FM281600 24007KT P6SM BKN035
     FM281900 27007KT P6SM SCT050=



000
FTUS44 KBMX 281314 AAA
TAFTOI
TAF AMD
KTOI 281314Z 2813/2912 22005KT 6SM BR VCTS BKN040CB
      TEMPO 2813/2814 TS BKN025CB
     FM281600 22009KT P6SM VCTS BKN050CB
     FM290100 23003KT P6SM BKN040
     FM290600 VRB03KT 4SM BR OVC010=



000
FTUS44 KBMX 281314 AAA
TAFTOI
TAF AMD
KTOI 281314Z 2813/2912 22005KT 6SM BR VCTS BKN040CB
      TEMPO 2813/2814 TS BKN025CB
     FM281600 22009KT P6SM VCTS BKN050CB
     FM290100 23003KT P6SM BKN040
     FM290600 VRB03KT 4SM BR OVC010=



000
FTUS44 KBMX 281300 AAA
TAFEET
TAF AMD
KEET 281300Z 2813/2912 00000KT 5SM BR OVC005
     FM281500 20003KT P6SM BKN015
     FM281600 24005KT P6SM BKN035
     FM281900 27006KT P6SM SCT050=



000
FTUS44 KBMX 281300 AAA
TAFEET
TAF AMD
KEET 281300Z 2813/2912 00000KT 5SM BR OVC005
     FM281500 20003KT P6SM BKN015
     FM281600 24005KT P6SM BKN035
     FM281900 27006KT P6SM SCT050=



000
FTUS44 KBMX 281139
TAFBHM
TAF
KBHM 281139Z 2812/2912 17005KT P6SM OVC008
     FM281500 20006KT P6SM BKN015
     FM281600 24007KT P6SM BKN035
     FM281900 27007KT P6SM SCT050=



000
FTUS44 KBMX 281139
TAFBHM
TAF
KBHM 281139Z 2812/2912 17005KT P6SM OVC008
     FM281500 20006KT P6SM BKN015
     FM281600 24007KT P6SM BKN035
     FM281900 27007KT P6SM SCT050=



000
FTUS44 KBMX 281139
TAFANB
TAF
KANB 281139Z 2812/2912 00000KT P6SM OVC010
     FM281600 24005KT P6SM BKN015
     FM281800 26005KT P6SM BKN035
     FM282200 26005KT P6SM SCT050=



000
FTUS44 KBMX 281139
TAFMGM
TAF
KMGM 281139Z 2812/2912 17004KT P6SM BKN012
     FM281400 23006KT P6SM BKN040 BKN080
     FM281600 22009KT P6SM VCTS BKN050CB
     FM290100 23003KT P6SM BKN040
     FM290600 VRB03KT 4SM BR OVC010=



000
FTUS44 KBMX 281139
TAFEET
TAF
KEET 281139Z 2812/2912 00000KT 2SM BR OVC003
     FM281500 20003KT P6SM BKN015
     FM281600 24005KT P6SM BKN035
     FM281900 27006KT P6SM SCT050=



000
FTUS44 KBMX 281139
TAFTOI
TAF
KTOI 281139Z 2812/2912 22005KT 6SM BR VCTS BKN040CB
     FM281600 22009KT P6SM VCTS BKN050CB
     FM290100 23003KT P6SM BKN040
     FM290600 VRB03KT 4SM BR OVC010=



000
FTUS44 KBMX 281139
TAFTCL
TAF
KTCL 281139Z 2812/2912 16004KT 6SM BR BKN005
     FM281500 23005KT P6SM BKN015
     FM281600 23005KT P6SM BKN035
     FM281900 27006KT P6SM SCT050=



000
FTUS44 KBMX 280952 AAA
TAFEET
TAF AMD
KEET 280952Z 2810/2906 00000KT 4SM BR OVC003
     FM281500 20003KT P6SM BKN015
     FM281600 24005KT P6SM BKN035
     FM281900 27006KT P6SM SCT050=



000
FTUS44 KBMX 280914 AAA
TAFMGM
TAF AMD
KMGM 280914Z 2809/2906 14004KT 4SM BR VCSH BKN025
     FM281200 17004KT P6SM BKN012
     FM281400 23006KT P6SM SCT040 BKN080=



000
FTUS44 KBMX 280914 AAA
TAFTOI
TAF AMD
KTOI 280914Z 2809/2906 00000KT 1/2SM FG OVC003
     FM281200 22005KT P6SM BKN012
     FM281400 22007KT P6SM SCT040 BKN080=



000
FTUS44 KBMX 280641 AAA
TAFTCL
TAF AMD
KTCL 280641Z 2807/2906 16004KT 6SM BR BKN005
     FM281500 23005KT P6SM BKN015
     FM281600 23005KT P6SM BKN035
     FM281900 27006KT P6SM SCT050=



000
FTUS44 KBMX 280641 AAA
TAFTCL
TAF AMD
KTCL 280641Z 2807/2906 16004KT 6SM BR BKN005
     FM281500 23005KT P6SM BKN015
     FM281600 23005KT P6SM BKN035
     FM281900 27006KT P6SM SCT050=



000
FTUS44 KBMX 280530
TAFEET
TAF
KEET 280530Z 2806/2906 00000KT P6SM BKN250
     FM280700 00000KT 4SM BR OVC005
     FM281500 20003KT P6SM BKN015
     FM281600 24005KT P6SM BKN035
     FM281900 27006KT P6SM SCT050=



000
FTUS44 KBMX 280530
TAFBHM
TAF
KBHM 280530Z 2806/2906 17005KT P6SM BKN250
     FM280900 17005KT 5SM BR OVC008
     FM281500 20006KT P6SM BKN015
     FM281600 24007KT P6SM BKN035
     FM281900 27007KT P6SM SCT050=



000
FTUS44 KBMX 280530
TAFTOI
TAF
KTOI 280530Z 2806/2906 00000KT P6SM BKN012
     FM280700 00000KT P6SM OVC006
     FM281200 22005KT P6SM BKN012
     FM281400 22007KT P6SM SCT040 BKN080=



000
FTUS44 KBMX 280530
TAFEET
TAF
KEET 280530Z 2806/2906 00000KT P6SM BKN250
     FM280700 00000KT 4SM BR OVC005
     FM281500 20003KT P6SM BKN015
     FM281600 24005KT P6SM BKN035
     FM281900 27006KT P6SM SCT050=



000
FTUS44 KBMX 280530
TAFBHM
TAF
KBHM 280530Z 2806/2906 17005KT P6SM BKN250
     FM280900 17005KT 5SM BR OVC008
     FM281500 20006KT P6SM BKN015
     FM281600 24007KT P6SM BKN035
     FM281900 27007KT P6SM SCT050=



000
FTUS44 KBMX 280530
TAFANB
TAF
KANB 280530Z 2806/2906 00000KT P6SM BKN250
     FM280900 00000KT 4SM BR OVC008
     FM281600 24005KT P6SM BKN015
     FM281800 26005KT P6SM BKN035
     FM282200 26005KT P6SM SCT050=



000
FTUS44 KBMX 280530
TAFANB
TAF
KANB 280530Z 2806/2906 00000KT P6SM BKN250
     FM280900 00000KT 4SM BR OVC008
     FM281600 24005KT P6SM BKN015
     FM281800 26005KT P6SM BKN035
     FM282200 26005KT P6SM SCT050=



000
FTUS44 KBMX 280530
TAFTCL
TAF
KTCL 280530Z 2806/2906 16004KT P6SM BKN250
     FM280800 17007KT 4SM BR OVC008
     FM281500 23005KT P6SM BKN015
     FM281600 23005KT P6SM BKN035
     FM281900 27006KT P6SM SCT050=



000
FTUS44 KBMX 280530
TAFMGM
TAF
KMGM 280530Z 2806/2906 14004KT P6SM BKN012
     FM280800 14004KT P6SM OVC006
     FM281200 17004KT P6SM BKN012
     FM281400 23006KT P6SM SCT040 BKN080=



000
FTUS44 KBMX 280530
TAFTCL
TAF
KTCL 280530Z 2806/2906 16004KT P6SM BKN250
     FM280800 17007KT 4SM BR OVC008
     FM281500 23005KT P6SM BKN015
     FM281600 23005KT P6SM BKN035
     FM281900 27006KT P6SM SCT050=



000
FTUS44 KBMX 280530
TAFMGM
TAF
KMGM 280530Z 2806/2906 14004KT P6SM BKN012
     FM280800 14004KT P6SM OVC006
     FM281200 17004KT P6SM BKN012
     FM281400 23006KT P6SM SCT040 BKN080=



000
FTUS44 KBMX 280530
TAFTOI
TAF
KTOI 280530Z 2806/2906 00000KT P6SM BKN012
     FM280700 00000KT P6SM OVC006
     FM281200 22005KT P6SM BKN012
     FM281400 22007KT P6SM SCT040 BKN080=



000
FTUS44 KBMX 280344 AAB
TAFTOI
TAF AMD
KTOI 280344Z 2804/2824 17005KT P6SM BKN006
     FM281200 22008KT P6SM BKN035=



000
FTUS44 KBMX 280131 AAA
TAFTOI
TAF AMD
KTOI 280131Z 2802/2824 17006KT P6SM SCT030 BKN120
     FM280600 17005KT P6SM BKN008
     FM281200 22008KT P6SM BKN035=



000
FTUS44 KBMX 280131 AAA
TAFTOI
TAF AMD
KTOI 280131Z 2802/2824 17006KT P6SM SCT030 BKN120
     FM280600 17005KT P6SM BKN008
     FM281200 22008KT P6SM BKN035=



000
FTUS44 KBMX 272326
TAFTCL
TAF
KTCL 272326Z 2800/2824 17008KT P6SM BKN250
     FM281000 17007KT P6SM OVC008
     FM281500 23005KT P6SM BKN015
     FM281700 23005KT P6SM BKN035=



000
FTUS44 KBMX 272326
TAFBHM
TAF
KBHM 272326Z 2800/2824 18010KT P6SM BKN090
     FM280900 18005KT P6SM OVC010
     FM281500 18005KT P6SM BKN015
     FM281600 26007KT P6SM BKN035=



000
FTUS44 KBMX 272326
TAFMGM
TAF
KMGM 272326Z 2800/2824 16007KT P6SM SCT050 BKN150
     FM280800 16007KT P6SM BKN008
     FM281200 22008KT P6SM BKN035=



000
FTUS44 KBMX 272326
TAFTOI
TAF
KTOI 272326Z 2800/2824 17006KT 6SM -TSRA BR BKN040CB OVC100
      TEMPO 2800/2802 3SM TSRA BR BKN030CB OVC050
     FM280200 17005KT P6SM BKN150
     FM280600 17005KT P6SM BKN008
     FM281200 22008KT P6SM BKN035=



000
FTUS44 KBMX 272326
TAFEET
TAF
KEET 272326Z 2800/2824 18007KT P6SM BKN090
     FM280900 18003KT P6SM OVC010
     FM281500 18003KT P6SM BKN015
     FM281600 26005KT P6SM BKN035=



000
FTUS44 KBMX 272326
TAFANB
TAF
KANB 272326Z 2800/2824 19006KT P6SM SCT040 BKN100
      TEMPO 2800/2801 4SM -TSRA BR BKN040CB
     FM280900 24006KT P6SM OVC010
     FM281500 23005KT P6SM BKN015
     FM281600 23005KT P6SM BKN035=



000
FTUS44 KBMX 272134 AAB
TAFTCL
TAF AMD
KTCL 272134Z 2722/2818 19009KT P6SM BKN040
     FM280000 17005KT P6SM SCT090 BKN250
     FM280600 17005KT P6SM OVC060=



000
FTUS44 KBMX 272133 AAB
TAFTOI
TAF AMD
KTOI 272133Z 2722/2818 19011KT P6SM VCTS SCT025CB
      TEMPO 2722/2724 19015G25KT 1SM +TSRA BR BKN025CB OVC040
     FM280000 20009KT 6SM TSRA SCT015CB BKN030
     FM280230 18006KT P6SM SHRA VCTS BKN090CB
     FM280900 17004KT 6SM SHRA OVC008=



000
FTUS44 KBMX 272131 AAB
TAFMGM
TAF AMD
KMGM 272131Z 2722/2818 18009KT 6SM TSRA BR BKN035CB
      TEMPO 2722/2723 18020G35KT 1SM +TSRA BR BKN025CB OVC035
     FM272300 12007KT P6SM SHRA VCTS BKN035CB
     FM280100 17007KT P6SM SHRA VCTS BKN090CB
     FM280900 17004KT 6SM SHRA OVC008=



000
FTUS44 KBMX 272042 AAA
TAFMGM
TAF AMD
KMGM 272042Z 2721/2818 23009KT P6SM SHRA VCTS BKN035CB
      TEMPO 2721/2723 3SM TSRA SCT025CB BKN035
     FM272300 12007KT P6SM SHRA VCTS BKN035CB
     FM280100 17007KT P6SM SHRA VCTS BKN090CB
     FM280900 17004KT 6SM SHRA OVC008=



000
FTUS44 KBMX 271842 AAA
TAFTOI
TAF AMD
KTOI 271842Z 2719/2818 20011KT P6SM VCTS SCT025CB
      TEMPO 2719/2722 4SM TSRA OVC015CB
     FM272300 20009KT 6SM TSRA SCT015CB BKN030
     FM280400 18006KT P6SM SHRA VCTS BKN090CB
     FM280900 17004KT 6SM SHRA OVC008=



000
FTUS44 KBMX 271841 AAA
TAFTCL
TAF AMD
KTCL 271841Z 2719/2818 19013KT P6SM SHRA VCTS SCT025CB BKN040
      TEMPO 2719/2723 4SM TSRA OVC025CB
     FM280000 17005KT P6SM VCSH SCT090 BKN250
     FM280600 17005KT P6SM SHRA VCTS OVC060CB=



000
FTUS44 KBMX 271720
TAFTOI
TAF
KTOI 271720Z 2718/2818 21009G15KT P6SM FEW029 SCT035 SCT050
     FM271900 20011KT P6SM VCTS SCT025CB
      TEMPO 2720/2723 4SM TSRA OVC015CB
     FM272300 20009KT 6SM TSRA SCT015CB BKN030
     FM280400 18006KT P6SM SHRA VCTS BKN090CB
     FM280900 17004KT 6SM SHRA OVC008=



000
FTUS44 KBMX 271720
TAFANB
TAF
KANB 271720Z 2718/2818 21010KT P6SM SCT045 SCT050
     FM272100 20008KT P6SM VCSH BKN050
     FM272300 15006KT P6SM SHRA VCTS BKN050CB
      TEMPO 2801/2805 2SM TSRA BKN025CB OVC035
     FM280700 18004KT P6SM SHRA VCTS OVC020CB
     FM280900 19004KT P6SM SHRA VCTS OVC030CB=



000
FTUS44 KBMX 271720
TAFEET
TAF
KEET 271720Z 2718/2818 17009KT P6SM BKN027 BKN035
     FM271900 20012KT P6SM VCTS BKN040CB
     FM272100 18010KT P6SM SHRA VCTS BKN035CB
      TEMPO 2722/2802 2SM TSRA BKN025CB OVC035
     FM280900 19006KT P6SM SHRA VCTS OVC015CB=



000
FTUS44 KBMX 271720
TAFMGM
TAF
KMGM 271720Z 2718/2818 18007KT P6SM FEW035
     FM272100 19009KT P6SM SHRA VCTS BKN035CB
     FM272300 12007KT P6SM SHRA VCTS BKN035CB
     FM280100 17007KT P6SM SHRA VCTS BKN090CB
     FM280900 17004KT 6SM SHRA OVC008=



000
FTUS44 KBMX 271720
TAFBHM
TAF
KBHM 271720Z 2718/2818 24012G18KT P6SM BKN030 BKN250
     FM272200 19009KT P6SM SHRA VCTS BKN040CB
      TEMPO 2723/2803 2SM TSRA BKN025CB OVC035
     FM280900 19006KT P6SM SHRA VCTS OVC010CB=



000
FTUS44 KBMX 271720
TAFTCL
TAF
KTCL 271720Z 2718/2818 20012KT P6SM SCT024 BKN035
     FM272000 19013KT P6SM SHRA VCTS SCT025CB BKN040
      TEMPO 2721/2724 4SM TSRA OVC025CB
     FM280000 17005KT P6SM VCSH SCT090 BKN250
     FM280600 17005KT P6SM SHRA VCTS OVC060CB=



000
FTUS44 KBMX 271349 AAB
TAFTCL
TAF AMD
KTCL 271349Z 2714/2812 19004KT P6SM BKN009 BKN250
     FM271600 20007KT P6SM SCT050 BKN250
     FM272000 19010G17KT P6SM VCTS BKN040CB
     FM280100 18007KT P6SM BKN080
     FM280600 18003KT 4SM BR VCTS BKN015CB=



000
FTUS44 KBMX 271323 AAA
TAFEET
TAF AMD
KEET 271323Z 2713/2812 VRB03KT P6SM FEW250
      TEMPO 2713/2715 BKN009
     FM271600 20007KT P6SM SCT050 BKN250
     FM272200 19010G17KT P6SM VCTS BKN040CB
     FM280100 16005KT P6SM BKN080
     FM280600 20006KT 5SM BR VCTS BKN015CB=



000
FTUS44 KBMX 271301 AAA
TAFTOI
TAF AMD
KTOI 271301Z 2713/2812 00000KT 6SM BR BKN010
     FM271400 17005KT P6SM BKN015
     FM271600 18007KT P6SM SCT040
     FM272300 19007KT P6SM VCSH SCT050
     FM280200 18006KT P6SM SCT060
     FM280600 18003KT 4SM BR OVC010=



000
FTUS44 KBMX 271259 AAA
TAFMGM
TAF AMD
KMGM 271259Z 2713/2812 VRB02KT 3SM BR BKN003
      TEMPO 2713/2714 1/4SM FG OVC002
     FM271500 16006KT P6SM BKN015
     FM271700 19007KT P6SM SCT040 BKN250
     FM272200 19008KT P6SM VCTS BKN050CB
     FM280200 17007KT P6SM BKN060
     FM280600 18003KT 4SM BR BKN015=



000
FTUS44 KBMX 271259 AAA
TAFTCL
TAF AMD
KTCL 271259Z 2713/2812 19004KT P6SM SCT009 BKN250
      TEMPO 2713/2714 BKN009
     FM271600 20007KT P6SM SCT050 BKN250
     FM272000 19010G17KT P6SM VCTS BKN040CB
     FM280100 18007KT P6SM BKN080
     FM280600 18003KT 4SM BR VCTS BKN015CB=



000
FTUS44 KBMX 271150 CCA
TAFTCL
TAF COR
KTCL 271150Z 2712/2812 19004KT P6SM BKN250
     FM271600 20007KT P6SM SCT050 BKN250
     FM272000 19010G17KT P6SM VCTS BKN040CB
     FM280100 18007KT P6SM BKN080
     FM280600 18003KT 4SM BR VCTS BKN015CB=



000
FTUS44 KBMX 271150 CCA
TAFANB
TAF COR
KANB 271150Z 2712/2812 00000KT P6SM BKN250
     FM271600 21008KT P6SM FEW050 BKN250
     FM272300 19010G17KT P6SM VCTS BKN050CB
     FM280300 18004KT P6SM BKN100
     FM280600 20004KT 5SM BR VCTS BKN015CB=



000
FTUS44 KBMX 271126
TAFBHM
TAF
KBHM 271126Z 2712/2812 18004KT P6SM BKN250
     FM271600 21010KT P6SM SCT050 BKN250
     FM272200 20010G17KT P6SM VCTS BKN040CB
     FM280100 19007KT P6SM BKN060
     FM280600 20006KT 5SM BR VCTS BKN015CB=



000
FTUS44 KBMX 271126
TAFANB
TAF
KANB 271126Z 2712/2812 00000KT P6SM BKN250
     FM271600 21008KT P6SM FEW050 BKN250
     FM272300 19006KT P6SM VCTS BKN050CB
     FM280300 18004KT P6SM BKN100
     FM280600 20004KT 5SM BR VCTS BKN015CB=



000
FTUS44 KBMX 271126
TAFTCL
TAF
KTCL 271126Z 2712/2812 19004KT P6SM BKN250
     FM271600 20007KT P6SM SCT050 BKN250
     FM272000 19008KT P6SM VCTS BKN040CB
     FM280100 18007KT P6SM BKN080
     FM280600 18003KT 4SM BR VCTS BKN015CB=



000
FTUS44 KBMX 271126
TAFTOI
TAF
KTOI 271126Z 2712/2812 00000KT 6SM BR BKN005
     FM271400 17005KT P6SM BKN015
     FM271600 18007KT P6SM SCT040
     FM272300 19007KT P6SM VCSH SCT050
     FM280200 18006KT P6SM SCT060
     FM280600 18003KT 4SM BR OVC010=



000
FTUS44 KBMX 271126
TAFMGM
TAF
KMGM 271126Z 2712/2812 VRB02KT 3SM BR BKN003
      TEMPO 2712/2714 1/2SM FG OVC003
     FM271500 16006KT P6SM BKN015
     FM271700 19007KT P6SM SCT040 BKN250
     FM272200 19008KT P6SM VCTS BKN050CB
     FM280200 17007KT P6SM BKN060
     FM280600 18003KT 4SM BR BKN015=



000
FTUS44 KBMX 271126
TAFEET
TAF
KEET 271126Z 2712/2812 VRB03KT P6SM FEW250
     FM271600 20007KT P6SM SCT050 BKN250
     FM272200 19010G17KT P6SM VCTS BKN040CB
     FM280100 16005KT P6SM BKN080
     FM280600 20006KT 5SM BR VCTS BKN015CB=



000
FTUS44 KBMX 271039 AAA
TAFMGM
TAF AMD
KMGM 271039Z 2711/2806 VRB02KT P6SM BKN007
     FM271500 16006KT P6SM BKN025
     FM271700 19007KT P6SM SCT040
     FM272200 19008KT P6SM VCTS SCT050CB
     FM280200 17007KT P6SM SCT060=



000
FTUS44 KBMX 270902 AAC
TAFTOI
TAF AMD
KTOI 270902Z 2709/2806 00000KT 1/2SM FG BKN003
     FM271400 17005KT P6SM BKN007
     FM271600 18007KT P6SM SCT040
     FM272200 19007KT P6SM VCSH SCT050
     FM280200 18006KT P6SM SCT060=



000
FTUS44 KBMX 270709 AAB
TAFTOI
TAF AMD
KTOI 270709Z 2707/2806 00000KT P6SM SCT008
     FM270900 00000KT P6SM BKN008
     FM271500 17007KT P6SM BKN020
     FM271700 18007KT P6SM SCT040
     FM272200 19007KT P6SM VCSH SCT050
     FM280200 18006KT P6SM SCT060=



000
FTUS44 KBMX 270709 AAB
TAFTOI
TAF AMD
KTOI 270709Z 2707/2806 00000KT P6SM SCT008
     FM270900 00000KT P6SM BKN008
     FM271500 17007KT P6SM BKN020
     FM271700 18007KT P6SM SCT040
     FM272200 19007KT P6SM VCSH SCT050
     FM280200 18006KT P6SM SCT060=



000
FTUS44 KBMX 270647 AAA
TAFTOI
TAF AMD
KTOI 270647Z 2707/2806 00000KT P6SM BKN008
     FM271500 17007KT P6SM BKN020
     FM271700 18007KT P6SM SCT040
     FM272200 19007KT P6SM VCSH SCT050
     FM280200 18006KT P6SM SCT060=



000
FTUS44 KBMX 270647 AAA
TAFTOI
TAF AMD
KTOI 270647Z 2707/2806 00000KT P6SM BKN008
     FM271500 17007KT P6SM BKN020
     FM271700 18007KT P6SM SCT040
     FM272200 19007KT P6SM VCSH SCT050
     FM280200 18006KT P6SM SCT060=



000
FTUS44 KBMX 270520
TAFBHM
TAF
KBHM 270520Z 2706/2806 18004KT P6SM FEW250
     FM271600 21008KT P6SM SCT050
     FM272200 20009KT P6SM VCTS BKN050CB
     FM280100 17007KT P6SM BKN080=



000
FTUS44 KBMX 270520
TAFANB
TAF
KANB 270520Z 2706/2806 00000KT P6SM FEW250
     FM271600 21008KT P6SM FEW050
     FM272300 19006KT P6SM VCTS BKN050CB
     FM280300 16004KT P6SM SCT150=



000
FTUS44 KBMX 270520
TAFTOI
TAF
KTOI 270520Z 2706/2806 00000KT P6SM FEW060
      TEMPO 2710/2713 4SM BR BKN008
     FM271500 17007KT P6SM BKN020
     FM271700 18007KT P6SM SCT040
     FM272200 19007KT P6SM VCSH SCT050
     FM280200 18006KT P6SM SCT060=



000
FTUS44 KBMX 270520
TAFTCL
TAF
KTCL 270520Z 2706/2806 19004KT P6SM FEW250
     FM271600 20007KT P6SM SCT050
     FM272100 19008KT P6SM VCTS BKN050CB
     FM280100 18007KT P6SM BKN080=



000
FTUS44 KBMX 270520
TAFMGM
TAF
KMGM 270520Z 2706/2806 18004KT P6SM FEW250
     FM270900 VRB02KT P6SM SCT010
      TEMPO 2710/2713 BKN010
     FM271500 16006KT P6SM BKN025
     FM271700 19007KT P6SM SCT040
     FM272200 19008KT P6SM VCTS SCT050CB
     FM280200 17007KT P6SM SCT060=



000
FTUS44 KBMX 270520
TAFEET
TAF
KEET 270520Z 2706/2806 VRB03KT P6SM FEW250
     FM271600 20007KT P6SM SCT050
     FM272200 19007KT P6SM VCTS BKN050CB
     FM280100 16005KT P6SM BKN080=



000
FTUS44 KBMX 262323
TAFMGM
TAF
KMGM 262323Z 2700/2724 18004KT P6SM FEW060
     FM271200 16005KT P6SM BKN020
     FM271500 17006KT P6SM SCT025
     FM271900 19008KT P6SM SCT050=



000
FTUS44 KBMX 262323
TAFTCL
TAF
KTCL 262323Z 2700/2724 18005KT P6SM FEW060
      TEMPO 2710/2712 2SM BR
     FM271800 20007KT P6SM SCT050=



000
FTUS44 KBMX 262323
TAFTOI
TAF
KTOI 262323Z 2700/2724 17003KT P6SM FEW060
     FM271000 00000KT 4SM BR BKN008
     FM271500 17007KT P6SM BKN020
     FM271800 19007KT P6SM VCTS SCT050CB=



000
FTUS44 KBMX 262323
TAFBHM
TAF
KBHM 262323Z 2700/2724 19006KT P6SM FEW050
     FM271800 21008KT P6SM SCT050=



000
FTUS44 KBMX 262323
TAFANB
TAF
KANB 262323Z 2700/2724 VRB03KT P6SM FEW060
     FM271800 21008KT P6SM SCT050=



000
FTUS44 KBMX 262323
TAFEET
TAF
KEET 262323Z 2700/2724 17003KT P6SM FEW050
     FM271800 20007KT P6SM SCT050=



000
FTUS44 KBMX 262323
TAFEET
TAF
KEET 262323Z 2700/2724 17003KT P6SM FEW050
     FM271800 20007KT P6SM SCT050=



000
FTUS44 KBMX 261720
TAFANB
TAF
KANB 261720Z 2618/2718 21007KT P6SM SCT050
     FM270000 VRB02KT P6SM FEW250
     FM271500 21008KT P6SM SCT040=



000
FTUS44 KBMX 261720
TAFEET
TAF
KEET 261720Z 2618/2718 19007KT P6SM SCT050
     FM270000 17002KT P6SM FEW250
     FM271500 19008KT P6SM BKN035=



000
FTUS44 KBMX 261720
TAFBHM
TAF
KBHM 261720Z 2618/2718 19008KT P6SM SCT050
     FM270000 18004KT P6SM FEW250
     FM271500 19009KT P6SM BKN040=



000
FTUS44 KBMX 261720
TAFTCL
TAF
KTCL 261720Z 2618/2718 19007KT P6SM SCT040
     FM270000 17004KT P6SM FEW250
      TEMPO 2709/2713 3SM BR
     FM271300 18008KT P6SM BKN025=



000
FTUS44 KBMX 261720
TAFTOI
TAF
KTOI 261720Z 2618/2718 17006KT P6SM SCT040
     FM270000 18003KT P6SM FEW250
     FM270900 15003KT P6SM BKN010
     FM271500 18008KT P6SM BKN025=



000
FTUS44 KBMX 261720
TAFMGM
TAF
KMGM 261720Z 2618/2718 17007KT P6SM SCT040
     FM270000 16003KT P6SM FEW250
     FM271000 15003KT P6SM BKN015
     FM271500 18008KT P6SM BKN030=



000
FTUS44 KBMX 261720
TAFANB
TAF
KANB 261720Z 2618/2718 21007KT P6SM SCT050
     FM270000 VRB02KT P6SM FEW250
     FM271500 21008KT P6SM SCT040=



000
FTUS44 KBMX 261720
TAFEET
TAF
KEET 261720Z 2618/2718 19007KT P6SM SCT050
     FM270000 17002KT P6SM FEW250
     FM271500 19008KT P6SM BKN035=



000
FTUS44 KBMX 261720
TAFBHM
TAF
KBHM 261720Z 2618/2718 19008KT P6SM SCT050
     FM270000 18004KT P6SM FEW250
     FM271500 19009KT P6SM BKN040=



000
FTUS44 KBMX 261720
TAFTCL
TAF
KTCL 261720Z 2618/2718 19007KT P6SM SCT040
     FM270000 17004KT P6SM FEW250
      TEMPO 2709/2713 3SM BR
     FM271300 18008KT P6SM BKN025=



000
FTUS44 KBMX 261720
TAFTOI
TAF
KTOI 261720Z 2618/2718 17006KT P6SM SCT040
     FM270000 18003KT P6SM FEW250
     FM270900 15003KT P6SM BKN010
     FM271500 18008KT P6SM BKN025=



000
FTUS44 KBMX 261720
TAFMGM
TAF
KMGM 261720Z 2618/2718 17007KT P6SM SCT040
     FM270000 16003KT P6SM FEW250
     FM271000 15003KT P6SM BKN015
     FM271500 18008KT P6SM BKN030=



    US Dept of Commerce
    National Oceanic and Atmospheric Administration
    National Weather Service
    1325 East West Highway
    Silver Spring, MD 20910
    Page Author: NWS Internet Services Team
Disclaimer
Information Quality
Credits
Glossary
Privacy Policy
Freedom of Information Act (FOIA)
About Us
Career Opportunities